sensor_id;sensor_type;location;lat;lon;timestamp;P1;durP1;ratioP1;P2;durP2;ratioP2
2173;SDS011;1093;51.424;11.764;2024-03-23T00:52:48;20.57;;;10.97;;
2173;SDS011;1093;51.424;11.764;2024-03-23T00:55:14;16.30;;;11.87;;
2173;SDS011;1093;51.424;11.764;2024-03-23T00:57:41;17.50;;;11.67;;
2173;SDS011;1093;51.424;11.764;2024-03-23T01:00:07;18.13;;;10.93;;
2173;SDS011;1093;51.424;11.764;2024-03-23T01:02:36;18.03;;;10.50;;
2173;SDS011;1093;51.424;11.764;2024-03-23T01:05:02;17.70;;;10.50;;
2173;SDS011;1093;51.424;11.764;2024-03-23T01:07:29;16.37;;;11.13;;
2173;SDS011;1093;51.424;11.764;2024-03-23T01:09:57;15.17;;;10.80;;
2173;SDS011;1093;51.424;11.764;2024-03-23T01:12:24;16.07;;;11.10;;
2173;SDS011;1093;51.424;11.764;2024-03-23T01:14:49;15.07;;;10.23;;
2173;SDS011;1093;51.424;11.764;2024-03-23T01:17:16;14.93;;;11.30;;
2173;SDS011;1093;51.424;11.764;2024-03-23T01:19:42;17.20;;;11.10;;
2173;SDS011;1093;51.424;11.764;2024-03-23T01:22:09;24.40;;;11.43;;
2173;SDS011;1093;51.424;11.764;2024-03-23T01:24:35;15.80;;;10.73;;
2173;SDS011;1093;51.424;11.764;2024-03-23T01:27:03;21.50;;;11.60;;
2173;SDS011;1093;51.424;11.764;2024-03-23T01:29:29;16.00;;;11.20;;
2173;SDS011;1093;51.424;11.764;2024-03-23T01:31:56;14.70;;;11.20;;
2173;SDS011;1093;51.424;11.764;2024-03-23T01:34:22;20.97;;;11.40;;
2173;SDS011;1093;51.424;11.764;2024-03-23T01:36:49;18.53;;;11.20;;
2173;SDS011;1093;51.424;11.764;2024-03-23T01:39:15;20.23;;;11.97;;
2173;SDS011;1093;51.424;11.764;2024-03-23T01:41:42;21.80;;;11.70;;
2173;SDS011;1093;51.424;11.764;2024-03-23T01:44:10;20.43;;;11.93;;
2173;SDS011;1093;51.424;11.764;2024-03-23T01:46:38;13.30;;;9.80;;
2173;SDS011;1093;51.424;11.764;2024-03-23T01:49:04;20.07;;;12.30;;
2173;SDS011;1093;51.424;11.764;2024-03-23T01:51:31;17.77;;;12.83;;
2173;SDS011;1093;51.424;11.764;2024-03-23T01:53:58;20.03;;;12.50;;
2173;SDS011;1093;51.424;11.764;2024-03-23T01:56:27;18.73;;;11.77;;
2173;SDS011;1093;51.424;11.764;2024-03-23T01:58:53;14.93;;;10.97;;
2173;SDS011;1093;51.424;11.764;2024-03-23T02:01:22;17.80;;;10.97;;
2173;SDS011;1093;51.424;11.764;2024-03-23T02:03:47;15.97;;;11.00;;
2173;SDS011;1093;51.424;11.764;2024-03-23T02:06:14;13.20;;;10.27;;
2173;SDS011;1093;51.424;11.764;2024-03-23T02:08:40;16.43;;;10.53;;
2173;SDS011;1093;51.424;11.764;2024-03-23T02:11:07;17.20;;;11.50;;
2173;SDS011;1093;51.424;11.764;2024-03-23T02:13:33;20.20;;;11.20;;
2173;SDS011;1093;51.424;11.764;2024-03-23T02:16:00;18.43;;;12.00;;
2173;SDS011;1093;51.424;11.764;2024-03-23T02:18:27;22.40;;;13.73;;
2173;SDS011;1093;51.424;11.764;2024-03-23T02:20:54;18.13;;;12.17;;
2173;SDS011;1093;51.424;11.764;2024-03-23T02:23:21;22.07;;;13.47;;
2173;SDS011;1093;51.424;11.764;2024-03-23T02:25:49;17.13;;;13.37;;
2173;SDS011;1093;51.424;11.764;2024-03-23T02:28:18;20.60;;;13.27;;
2173;SDS011;1093;51.424;11.764;2024-03-23T02:30:45;20.60;;;12.80;;
2173;SDS011;1093;51.424;11.764;2024-03-23T02:33:10;20.70;;;12.53;;
2173;SDS011;1093;51.424;11.764;2024-03-23T02:35:37;24.30;;;13.83;;
2173;SDS011;1093;51.424;11.764;2024-03-23T02:38:03;19.97;;;12.40;;
2173;SDS011;1093;51.424;11.764;2024-03-23T02:40:31;20.47;;;12.90;;
2173;SDS011;1093;51.424;11.764;2024-03-23T02:42:57;21.97;;;13.70;;
2173;SDS011;1093;51.424;11.764;2024-03-23T02:45:24;24.07;;;14.70;;
2173;SDS011;1093;51.424;11.764;2024-03-23T02:47:51;20.00;;;13.17;;
2173;SDS011;1093;51.424;11.764;2024-03-23T02:50:18;22.83;;;14.20;;
2173;SDS011;1093;51.424;11.764;2024-03-23T02:52:43;20.07;;;14.20;;
2173;SDS011;1093;51.424;11.764;2024-03-23T02:55:10;20.13;;;13.30;;
2173;SDS011;1093;51.424;11.764;2024-03-23T02:57:37;17.23;;;11.83;;
2173;SDS011;1093;51.424;11.764;2024-03-23T03:00:05;21.23;;;10.97;;
2173;SDS011;1093;51.424;11.764;2024-03-23T03:02:32;15.77;;;9.77;;
2173;SDS011;1093;51.424;11.764;2024-03-23T03:04:59;17.53;;;9.97;;
2173;SDS011;1093;51.424;11.764;2024-03-23T03:07:24;16.73;;;10.43;;
2173;SDS011;1093;51.424;11.764;2024-03-23T03:09:51;23.30;;;11.57;;
2173;SDS011;1093;51.424;11.764;2024-03-23T03:12:17;14.60;;;8.83;;
2173;SDS011;1093;51.424;11.764;2024-03-23T03:14:45;16.20;;;11.20;;
2173;SDS011;1093;51.424;11.764;2024-03-23T03:17:11;20.93;;;13.17;;
2173;SDS011;1093;51.424;11.764;2024-03-23T03:19:38;21.40;;;14.57;;
2173;SDS011;1093;51.424;11.764;2024-03-23T03:22:04;18.50;;;12.10;;
2173;SDS011;1093;51.424;11.764;2024-03-23T03:24:31;16.50;;;10.63;;
2173;SDS011;1093;51.424;11.764;2024-03-23T03:26:58;16.43;;;9.63;;
2173;SDS011;1093;51.424;11.764;2024-03-23T03:29:24;19.07;;;12.80;;
2173;SDS011;1093;51.424;11.764;2024-03-23T03:31:52;28.53;;;15.13;;
2173;SDS011;1093;51.424;11.764;2024-03-23T03:34:19;25.00;;;14.00;;
2173;SDS011;1093;51.424;11.764;2024-03-23T03:36:44;21.87;;;14.83;;
2173;SDS011;1093;51.424;11.764;2024-03-23T03:39:11;26.83;;;13.83;;
2173;SDS011;1093;51.424;11.764;2024-03-23T03:41:37;23.67;;;14.97;;
2173;SDS011;1093;51.424;11.764;2024-03-23T03:44:04;22.53;;;15.00;;
2173;SDS011;1093;51.424;11.764;2024-03-23T03:46:30;28.53;;;15.33;;
2173;SDS011;1093;51.424;11.764;2024-03-23T03:48:58;32.73;;;15.97;;
2173;SDS011;1093;51.424;11.764;2024-03-23T03:51:24;22.27;;;14.17;;
2173;SDS011;1093;51.424;11.764;2024-03-23T03:53:51;25.80;;;14.43;;
2173;SDS011;1093;51.424;11.764;2024-03-23T03:56:16;28.80;;;15.03;;
2173;SDS011;1093;51.424;11.764;2024-03-23T03:58:43;23.23;;;15.10;;
2173;SDS011;1093;51.424;11.764;2024-03-23T04:01:09;27.60;;;16.63;;
2173;SDS011;1093;51.424;11.764;2024-03-23T04:03:36;27.67;;;15.70;;
2173;SDS011;1093;51.424;11.764;2024-03-23T04:06:04;24.87;;;15.90;;
2173;SDS011;1093;51.424;11.764;2024-03-23T04:08:31;26.90;;;16.60;;
2173;SDS011;1093;51.424;11.764;2024-03-23T04:10:57;21.70;;;14.70;;
2173;SDS011;1093;51.424;11.764;2024-03-23T04:13:23;32.03;;;15.80;;
2173;SDS011;1093;51.424;11.764;2024-03-23T04:15:53;26.33;;;16.17;;
2173;SDS011;1093;51.424;11.764;2024-03-23T04:18:20;29.80;;;16.27;;
2173;SDS011;1093;51.424;11.764;2024-03-23T04:20:46;27.30;;;13.80;;
2173;SDS011;1093;51.424;11.764;2024-03-23T04:23:14;25.47;;;15.00;;
2173;SDS011;1093;51.424;11.764;2024-03-23T04:25:40;24.90;;;14.67;;
2173;SDS011;1093;51.424;11.764;2024-03-23T04:28:07;27.60;;;15.80;;
2173;SDS011;1093;51.424;11.764;2024-03-23T04:30:33;31.27;;;16.50;;
2173;SDS011;1093;51.424;11.764;2024-03-23T04:33:00;32.50;;;16.93;;
2173;SDS011;1093;51.424;11.764;2024-03-23T04:35:27;30.47;;;17.03;;
2173;SDS011;1093;51.424;11.764;2024-03-23T04:37:54;26.10;;;15.17;;
2173;SDS011;1093;51.424;11.764;2024-03-23T04:40:25;31.60;;;17.20;;
2173;SDS011;1093;51.424;11.764;2024-03-23T04:42:52;27.07;;;15.37;;
2173;SDS011;1093;51.424;11.764;2024-03-23T04:45:19;26.17;;;14.30;;
2173;SDS011;1093;51.424;11.764;2024-03-23T04:47:46;31.10;;;15.90;;
2173;SDS011;1093;51.424;11.764;2024-03-23T04:50:13;34.73;;;15.50;;
2173;SDS011;1093;51.424;11.764;2024-03-23T04:52:39;30.20;;;16.90;;
2173;SDS011;1093;51.424;11.764;2024-03-23T04:55:07;27.63;;;14.83;;
2173;SDS011;1093;51.424;11.764;2024-03-23T04:57:35;31.43;;;15.40;;
2173;SDS011;1093;51.424;11.764;2024-03-23T05:00:01;29.47;;;15.40;;
2173;SDS011;1093;51.424;11.764;2024-03-23T05:02:29;29.30;;;15.50;;
2173;SDS011;1093;51.424;11.764;2024-03-23T05:04:57;29.10;;;16.20;;
2173;SDS011;1093;51.424;11.764;2024-03-23T05:07:22;30.07;;;15.53;;
2173;SDS011;1093;51.424;11.764;2024-03-23T05:09:50;32.83;;;16.10;;
2173;SDS011;1093;51.424;11.764;2024-03-23T05:12:16;26.10;;;16.57;;
2173;SDS011;1093;51.424;11.764;2024-03-23T05:14:44;32.67;;;17.70;;
2173;SDS011;1093;51.424;11.764;2024-03-23T05:17:10;39.80;;;17.50;;
2173;SDS011;1093;51.424;11.764;2024-03-23T05:19:36;27.53;;;16.03;;
2173;SDS011;1093;51.424;11.764;2024-03-23T05:22:02;31.30;;;17.53;;
2173;SDS011;1093;51.424;11.764;2024-03-23T05:24:30;28.90;;;16.33;;
2173;SDS011;1093;51.424;11.764;2024-03-23T05:26:55;30.63;;;16.50;;
2173;SDS011;1093;51.424;11.764;2024-03-23T05:29:24;31.23;;;16.90;;
2173;SDS011;1093;51.424;11.764;2024-03-23T05:31:52;32.93;;;16.47;;
2173;SDS011;1093;51.424;11.764;2024-03-23T05:34:21;35.83;;;16.70;;
2173;SDS011;1093;51.424;11.764;2024-03-23T05:36:47;32.43;;;15.23;;
2173;SDS011;1093;51.424;11.764;2024-03-23T05:39:16;35.00;;;17.27;;
2173;SDS011;1093;51.424;11.764;2024-03-23T05:41:47;27.23;;;15.20;;
2173;SDS011;1093;51.424;11.764;2024-03-23T05:44:13;32.03;;;16.10;;
2173;SDS011;1093;51.424;11.764;2024-03-23T05:46:40;33.23;;;16.40;;
2173;SDS011;1093;51.424;11.764;2024-03-23T05:49:09;35.03;;;16.70;;
2173;SDS011;1093;51.424;11.764;2024-03-23T05:51:35;36.40;;;18.10;;
2173;SDS011;1093;51.424;11.764;2024-03-23T05:54:02;35.80;;;17.37;;
2173;SDS011;1093;51.424;11.764;2024-03-23T05:56:27;35.83;;;15.53;;
2173;SDS011;1093;51.424;11.764;2024-03-23T05:58:56;38.87;;;15.50;;
2173;SDS011;1093;51.424;11.764;2024-03-23T06:01:22;24.50;;;13.43;;
2173;SDS011;1093;51.424;11.764;2024-03-23T06:03:49;30.47;;;15.17;;
2173;SDS011;1093;51.424;11.764;2024-03-23T06:06:17;22.53;;;12.33;;
2173;SDS011;1093;51.424;11.764;2024-03-23T06:08:48;22.53;;;11.33;;
2173;SDS011;1093;51.424;11.764;2024-03-23T06:11:14;14.93;;;9.60;;
2173;SDS011;1093;51.424;11.764;2024-03-23T06:13:41;14.53;;;8.20;;
2173;SDS011;1093;51.424;11.764;2024-03-23T06:16:06;13.03;;;7.87;;
2173;SDS011;1093;51.424;11.764;2024-03-23T06:18:49;14.63;;;7.80;;
2173;SDS011;1093;51.424;11.764;2024-03-23T06:21:26;12.37;;;7.00;;
2173;SDS011;1093;51.424;11.764;2024-03-23T06:24:05;9.77;;;5.90;;
2173;SDS011;1093;51.424;11.764;2024-03-23T06:26:37;8.90;;;5.47;;
2173;SDS011;1093;51.424;11.764;2024-03-23T06:29:03;6.23;;;5.50;;
2173;SDS011;1093;51.424;11.764;2024-03-23T06:31:33;6.40;;;4.50;;
2173;SDS011;1093;51.424;11.764;2024-03-23T06:33:59;12.27;;;5.47;;
2173;SDS011;1093;51.424;11.764;2024-03-23T06:36:53;10.60;;;4.93;;
2173;SDS011;1093;51.424;11.764;2024-03-23T06:39:47;6.03;;;4.50;;
2173;SDS011;1093;51.424;11.764;2024-03-23T06:45:14;11.93;;;4.80;;
2173;SDS011;1093;51.424;11.764;2024-03-23T06:48:29;5.90;;;4.80;;
2173;SDS011;1093;51.424;11.764;2024-03-23T06:51:18;14.90;;;5.40;;
2173;SDS011;1093;51.424;11.764;2024-03-23T06:54:20;12.03;;;6.23;;
2173;SDS011;1093;51.424;11.764;2024-03-23T06:57:06;12.90;;;6.97;;
2173;SDS011;1093;51.424;11.764;2024-03-23T06:59:32;9.27;;;5.43;;
2173;SDS011;1093;51.424;11.764;2024-03-23T07:01:59;15.47;;;7.00;;
2173;SDS011;1093;51.424;11.764;2024-03-23T07:04:26;11.53;;;6.90;;
2173;SDS011;1093;51.424;11.764;2024-03-23T07:06:54;19.67;;;7.20;;
2173;SDS011;1093;51.424;11.764;2024-03-23T07:09:21;15.63;;;6.80;;
2173;SDS011;1093;51.424;11.764;2024-03-23T07:11:53;6.87;;;4.80;;
2173;SDS011;1093;51.424;11.764;2024-03-23T07:14:19;7.47;;;4.20;;
2173;SDS011;1093;51.424;11.764;2024-03-23T07:16:46;3.87;;;2.77;;
2173;SDS011;1093;51.424;11.764;2024-03-23T07:19:11;3.13;;;1.90;;
2173;SDS011;1093;51.424;11.764;2024-03-23T07:21:40;3.90;;;1.97;;
2173;SDS011;1093;51.424;11.764;2024-03-23T07:24:09;2.77;;;1.60;;
2173;SDS011;1093;51.424;11.764;2024-03-23T07:26:38;2.03;;;1.50;;
2173;SDS011;1093;51.424;11.764;2024-03-23T07:29:04;1.33;;;1.20;;
2173;SDS011;1093;51.424;11.764;2024-03-23T07:31:31;2.10;;;1.70;;
2173;SDS011;1093;51.424;11.764;2024-03-23T07:33:58;2.43;;;1.43;;
2173;SDS011;1093;51.424;11.764;2024-03-23T07:36:30;3.57;;;1.73;;
2173;SDS011;1093;51.424;11.764;2024-03-23T07:38:55;5.60;;;1.57;;
2173;SDS011;1093;51.424;11.764;2024-03-23T07:41:23;8.30;;;1.43;;
2173;SDS011;1093;51.424;11.764;2024-03-23T07:43:54;4.83;;;1.83;;
2173;SDS011;1093;51.424;11.764;2024-03-23T07:46:22;1.97;;;1.00;;
2173;SDS011;1093;51.424;11.764;2024-03-23T07:48:48;6.17;;;1.60;;
2173;SDS011;1093;51.424;11.764;2024-03-23T07:51:16;3.10;;;1.60;;
2173;SDS011;1093;51.424;11.764;2024-03-23T07:53:45;1.90;;;1.63;;
2173;SDS011;1093;51.424;11.764;2024-03-23T07:56:13;1.30;;;1.07;;
2173;SDS011;1093;51.424;11.764;2024-03-23T07:58:40;3.97;;;1.50;;
2173;SDS011;1093;51.424;11.764;2024-03-23T08:01:12;4.87;;;1.90;;
2173;SDS011;1093;51.424;11.764;2024-03-23T08:03:40;1.73;;;1.47;;
2173;SDS011;1093;51.424;11.764;2024-03-23T08:06:10;3.90;;;1.80;;
2173;SDS011;1093;51.424;11.764;2024-03-23T08:08:40;2.73;;;1.60;;
2173;SDS011;1093;51.424;11.764;2024-03-23T08:11:08;2.13;;;1.50;;
2173;SDS011;1093;51.424;11.764;2024-03-23T08:13:34;1.40;;;1.30;;
2173;SDS011;1093;51.424;11.764;2024-03-23T08:16:02;2.10;;;1.43;;
2173;SDS011;1093;51.424;11.764;2024-03-23T08:18:31;4.30;;;2.70;;
2173;SDS011;1093;51.424;11.764;2024-03-23T08:20:58;3.70;;;1.37;;
2173;SDS011;1093;51.424;11.764;2024-03-23T08:23:24;3.17;;;2.73;;
2173;SDS011;1093;51.424;11.764;2024-03-23T08:25:51;4.63;;;2.23;;
2173;SDS011;1093;51.424;11.764;2024-03-23T08:28:17;2.63;;;1.70;;
2173;SDS011;1093;51.424;11.764;2024-03-23T08:30:44;6.60;;;1.70;;
2173;SDS011;1093;51.424;11.764;2024-03-23T08:33:10;3.20;;;1.70;;
2173;SDS011;1093;51.424;11.764;2024-03-23T08:35:39;3.30;;;2.00;;
2173;SDS011;1093;51.424;11.764;2024-03-23T08:38:05;2.83;;;1.73;;
2173;SDS011;1093;51.424;11.764;2024-03-23T08:40:32;3.07;;;1.80;;
2173;SDS011;1093;51.424;11.764;2024-03-23T08:42:57;2.20;;;1.50;;
2173;SDS011;1093;51.424;11.764;2024-03-23T08:45:27;4.83;;;1.50;;
2173;SDS011;1093;51.424;11.764;2024-03-23T08:47:53;2.10;;;1.40;;
2173;SDS011;1093;51.424;11.764;2024-03-23T08:50:19;2.07;;;1.70;;
2173;SDS011;1093;51.424;11.764;2024-03-23T08:52:48;2.33;;;1.57;;
2173;SDS011;1093;51.424;11.764;2024-03-23T08:55:17;2.83;;;2.57;;
2173;SDS011;1093;51.424;11.764;2024-03-23T08:57:43;3.57;;;2.60;;
2173;SDS011;1093;51.424;11.764;2024-03-23T09:00:10;2.30;;;2.10;;
2173;SDS011;1093;51.424;11.764;2024-03-23T09:02:42;5.60;;;3.23;;
2173;SDS011;1093;51.424;11.764;2024-03-23T09:05:13;7.07;;;4.57;;
2173;SDS011;1093;51.424;11.764;2024-03-23T09:07:40;9.30;;;5.30;;
2173;SDS011;1093;51.424;11.764;2024-03-23T09:10:11;6.17;;;4.70;;
2173;SDS011;1093;51.424;11.764;2024-03-23T09:12:37;7.40;;;6.30;;
2173;SDS011;1093;51.424;11.764;2024-03-23T09:15:04;5.87;;;5.27;;
2173;SDS011;1093;51.424;11.764;2024-03-23T09:17:30;6.23;;;5.00;;
2173;SDS011;1093;51.424;11.764;2024-03-23T09:19:58;8.13;;;5.20;;
2173;SDS011;1093;51.424;11.764;2024-03-23T09:22:24;6.30;;;4.80;;
2173;SDS011;1093;51.424;11.764;2024-03-23T09:24:51;5.40;;;4.60;;
2173;SDS011;1093;51.424;11.764;2024-03-23T09:27:18;4.67;;;3.70;;
2173;SDS011;1093;51.424;11.764;2024-03-23T09:29:45;3.93;;;3.53;;
2173;SDS011;1093;51.424;11.764;2024-03-23T09:32:11;4.33;;;3.50;;
2173;SDS011;1093;51.424;11.764;2024-03-23T09:34:38;4.20;;;3.80;;
2173;SDS011;1093;51.424;11.764;2024-03-23T09:37:04;3.80;;;3.50;;
2173;SDS011;1093;51.424;11.764;2024-03-23T09:39:32;4.20;;;3.80;;
2173;SDS011;1093;51.424;11.764;2024-03-23T09:41:58;2.70;;;2.50;;
2173;SDS011;1093;51.424;11.764;2024-03-23T09:44:27;3.43;;;3.10;;
2173;SDS011;1093;51.424;11.764;2024-03-23T09:46:54;3.00;;;2.80;;
2173;SDS011;1093;51.424;11.764;2024-03-23T09:49:21;3.83;;;3.27;;
2173;SDS011;1093;51.424;11.764;2024-03-23T09:51:47;3.80;;;3.30;;
2173;SDS011;1093;51.424;11.764;2024-03-23T09:54:14;3.30;;;3.00;;
2173;SDS011;1093;51.424;11.764;2024-03-23T09:56:39;4.70;;;2.80;;
2173;SDS011;1093;51.424;11.764;2024-03-23T09:59:06;3.17;;;2.93;;
2173;SDS011;1093;51.424;11.764;2024-03-23T10:01:33;2.90;;;2.40;;
2173;SDS011;1093;51.424;11.764;2024-03-23T10:04:00;2.53;;;2.33;;
2173;SDS011;1093;51.424;11.764;2024-03-23T10:06:27;2.13;;;1.97;;
2173;SDS011;1093;51.424;11.764;2024-03-23T10:08:54;2.50;;;2.30;;
2173;SDS011;1093;51.424;11.764;2024-03-23T10:11:20;2.40;;;2.10;;
2173;SDS011;1093;51.424;11.764;2024-03-23T10:13:47;2.50;;;2.30;;
2173;SDS011;1093;51.424;11.764;2024-03-23T10:16:20;2.93;;;2.47;;
2173;SDS011;1093;51.424;11.764;2024-03-23T10:18:53;2.50;;;2.30;;
2173;SDS011;1093;51.424;11.764;2024-03-23T10:21:19;3.10;;;2.57;;
2173;SDS011;1093;51.424;11.764;2024-03-23T10:23:46;2.70;;;2.50;;
2173;SDS011;1093;51.424;11.764;2024-03-23T10:26:16;2.30;;;2.10;;
2173;SDS011;1093;51.424;11.764;2024-03-23T10:28:52;2.47;;;1.90;;
2173;SDS011;1093;51.424;11.764;2024-03-23T10:31:24;3.67;;;2.17;;
2173;SDS011;1093;51.424;11.764;2024-03-23T10:33:53;3.13;;;2.13;;
2173;SDS011;1093;51.424;11.764;2024-03-23T10:36:20;3.97;;;2.70;;
2173;SDS011;1093;51.424;11.764;2024-03-23T10:38:46;4.67;;;2.63;;
2173;SDS011;1093;51.424;11.764;2024-03-23T10:41:14;5.63;;;2.03;;
2173;SDS011;1093;51.424;11.764;2024-03-23T10:43:42;6.37;;;2.10;;
2173;SDS011;1093;51.424;11.764;2024-03-23T10:46:10;2.23;;;1.87;;
2173;SDS011;1093;51.424;11.764;2024-03-23T10:48:39;2.00;;;1.60;;
2173;SDS011;1093;51.424;11.764;2024-03-23T10:51:07;4.30;;;2.77;;
2173;SDS011;1093;51.424;11.764;2024-03-23T10:53:37;2.60;;;1.23;;
2173;SDS011;1093;51.424;11.764;2024-03-23T10:56:05;3.67;;;1.93;;
2173;SDS011;1093;51.424;11.764;2024-03-23T10:58:36;3.00;;;1.70;;
2173;SDS011;1093;51.424;11.764;2024-03-23T11:01:03;2.47;;;1.80;;
2173;SDS011;1093;51.424;11.764;2024-03-23T11:03:31;5.10;;;1.40;;
2173;SDS011;1093;51.424;11.764;2024-03-23T11:06:01;1.73;;;1.17;;
2173;SDS011;1093;51.424;11.764;2024-03-23T11:08:35;1.97;;;1.30;;
2173;SDS011;1093;51.424;11.764;2024-03-23T11:11:11;5.43;;;2.03;;
2173;SDS011;1093;51.424;11.764;2024-03-23T11:13:40;2.97;;;2.13;;
2173;SDS011;1093;51.424;11.764;2024-03-23T11:16:15;3.50;;;1.97;;
2173;SDS011;1093;51.424;11.764;2024-03-23T11:18:43;1.90;;;1.37;;
2173;SDS011;1093;51.424;11.764;2024-03-23T11:21:09;2.10;;;1.47;;
2173;SDS011;1093;51.424;11.764;2024-03-23T11:24:14;2.20;;;2.10;;
2173;SDS011;1093;51.424;11.764;2024-03-23T11:26:40;2.53;;;1.70;;
2173;SDS011;1093;51.424;11.764;2024-03-23T11:29:10;3.50;;;1.57;;
2173;SDS011;1093;51.424;11.764;2024-03-23T11:31:36;1.77;;;1.50;;
2173;SDS011;1093;51.424;11.764;2024-03-23T11:34:04;1.67;;;1.57;;
2173;SDS011;1093;51.424;11.764;2024-03-23T11:36:30;4.53;;;2.00;;
2173;SDS011;1093;51.424;11.764;2024-03-23T11:38:58;2.03;;;1.93;;
2173;SDS011;1093;51.424;11.764;2024-03-23T11:41:26;2.03;;;1.83;;
2173;SDS011;1093;51.424;11.764;2024-03-23T11:43:56;11.70;;;3.30;;
2173;SDS011;1093;51.424;11.764;2024-03-23T11:46:38;4.27;;;2.90;;
2173;SDS011;1093;51.424;11.764;2024-03-23T11:49:05;6.40;;;3.77;;
2173;SDS011;1093;51.424;11.764;2024-03-23T11:51:31;3.80;;;2.83;;
2173;SDS011;1093;51.424;11.764;2024-03-23T11:54:06;6.30;;;3.43;;
2173;SDS011;1093;51.424;11.764;2024-03-23T11:56:34;4.53;;;3.53;;
2173;SDS011;1093;51.424;11.764;2024-03-23T11:59:01;11.40;;;4.23;;
2173;SDS011;1093;51.424;11.764;2024-03-23T12:01:27;10.00;;;4.00;;
2173;SDS011;1093;51.424;11.764;2024-03-23T12:03:55;17.03;;;6.37;;
2173;SDS011;1093;51.424;11.764;2024-03-23T12:06:21;7.77;;;4.37;;
2173;SDS011;1093;51.424;11.764;2024-03-23T12:08:51;6.00;;;4.00;;
2173;SDS011;1093;51.424;11.764;2024-03-23T12:11:17;12.67;;;4.00;;
2173;SDS011;1093;51.424;11.764;2024-03-23T12:13:52;13.40;;;4.23;;
2173;SDS011;1093;51.424;11.764;2024-03-23T12:16:24;11.03;;;5.07;;
2173;SDS011;1093;51.424;11.764;2024-03-23T12:18:56;8.20;;;3.40;;
2173;SDS011;1093;51.424;11.764;2024-03-23T12:21:32;5.00;;;3.83;;
2173;SDS011;1093;51.424;11.764;2024-03-23T12:23:59;13.00;;;4.93;;
2173;SDS011;1093;51.424;11.764;2024-03-23T12:26:25;6.57;;;4.10;;
2173;SDS011;1093;51.424;11.764;2024-03-23T12:28:54;11.90;;;5.20;;
2173;SDS011;1093;51.424;11.764;2024-03-23T12:31:25;8.80;;;5.03;;
2173;SDS011;1093;51.424;11.764;2024-03-23T12:33:52;12.63;;;4.90;;
2173;SDS011;1093;51.424;11.764;2024-03-23T12:36:18;7.10;;;4.53;;
2173;SDS011;1093;51.424;11.764;2024-03-23T12:38:45;8.03;;;4.80;;
2173;SDS011;1093;51.424;11.764;2024-03-23T12:41:12;13.07;;;4.27;;
2173;SDS011;1093;51.424;11.764;2024-03-23T12:43:39;6.93;;;4.40;;
2173;SDS011;1093;51.424;11.764;2024-03-23T12:46:06;6.27;;;4.10;;
2173;SDS011;1093;51.424;11.764;2024-03-23T12:48:33;13.53;;;4.37;;
2173;SDS011;1093;51.424;11.764;2024-03-23T12:50:59;10.00;;;4.57;;
2173;SDS011;1093;51.424;11.764;2024-03-23T12:53:27;13.20;;;5.00;;
2173;SDS011;1093;51.424;11.764;2024-03-23T12:55:53;12.37;;;5.17;;
2173;SDS011;1093;51.424;11.764;2024-03-23T12:58:23;6.30;;;4.97;;
2173;SDS011;1093;51.424;11.764;2024-03-23T13:00:49;14.40;;;5.63;;
2173;SDS011;1093;51.424;11.764;2024-03-23T13:03:17;8.30;;;4.80;;
2173;SDS011;1093;51.424;11.764;2024-03-23T13:05:51;10.73;;;5.60;;
2173;SDS011;1093;51.424;11.764;2024-03-23T13:08:18;10.30;;;5.77;;
2173;SDS011;1093;51.424;11.764;2024-03-23T13:10:44;9.47;;;5.90;;
2173;SDS011;1093;51.424;11.764;2024-03-23T13:13:12;10.80;;;6.57;;
2173;SDS011;1093;51.424;11.764;2024-03-23T13:15:49;9.80;;;7.37;;
2173;SDS011;1093;51.424;11.764;2024-03-23T13:18:24;12.23;;;7.80;;
2173;SDS011;1093;51.424;11.764;2024-03-23T13:20:53;8.93;;;6.17;;
2173;SDS011;1093;51.424;11.764;2024-03-23T13:23:20;9.50;;;6.47;;
2173;SDS011;1093;51.424;11.764;2024-03-23T13:25:49;8.93;;;5.70;;
2173;SDS011;1093;51.424;11.764;2024-03-23T13:28:17;16.27;;;6.80;;
2173;SDS011;1093;51.424;11.764;2024-03-23T13:30:49;11.70;;;6.13;;
2173;SDS011;1093;51.424;11.764;2024-03-23T13:33:17;14.53;;;6.40;;
2173;SDS011;1093;51.424;11.764;2024-03-23T13:35:51;14.50;;;6.53;;
2173;SDS011;1093;51.424;11.764;2024-03-23T13:38:17;9.40;;;6.73;;
2173;SDS011;1093;51.424;11.764;2024-03-23T13:40:54;19.03;;;7.33;;
2173;SDS011;1093;51.424;11.764;2024-03-23T13:43:21;6.07;;;4.30;;
2173;SDS011;1093;51.424;11.764;2024-03-23T13:45:49;9.33;;;3.80;;
2173;SDS011;1093;51.424;11.764;2024-03-23T13:48:21;5.30;;;4.13;;
2173;SDS011;1093;51.424;11.764;2024-03-23T13:51:01;7.90;;;3.87;;
2173;SDS011;1093;51.424;11.764;2024-03-23T13:53:33;4.10;;;3.10;;
2173;SDS011;1093;51.424;11.764;2024-03-23T13:56:09;4.43;;;4.00;;
2173;SDS011;1093;51.424;11.764;2024-03-23T14:01:20;7.57;;;5.57;;
2173;SDS011;1093;51.424;11.764;2024-03-23T14:06:51;5.60;;;4.70;;
2173;SDS011;1093;51.424;11.764;2024-03-23T14:09:38;8.20;;;4.73;;
2173;SDS011;1093;51.424;11.764;2024-03-23T14:15:06;9.63;;;5.27;;
2173;SDS011;1093;51.424;11.764;2024-03-23T14:17:32;7.10;;;5.67;;
2173;SDS011;1093;51.424;11.764;2024-03-23T14:20:03;6.57;;;5.13;;
2173;SDS011;1093;51.424;11.764;2024-03-23T14:22:53;7.73;;;4.33;;
2173;SDS011;1093;51.424;11.764;2024-03-23T14:25:19;6.53;;;3.30;;
2173;SDS011;1093;51.424;11.764;2024-03-23T14:27:49;7.23;;;2.60;;
2173;SDS011;1093;51.424;11.764;2024-03-23T14:30:42;4.37;;;2.77;;
2173;SDS011;1093;51.424;11.764;2024-03-23T14:33:10;3.50;;;3.20;;
2173;SDS011;1093;51.424;11.764;2024-03-23T14:35:51;6.73;;;4.50;;
2173;SDS011;1093;51.424;11.764;2024-03-23T14:38:26;7.27;;;3.87;;
2173;SDS011;1093;51.424;11.764;2024-03-23T14:40:52;10.10;;;5.00;;
2173;SDS011;1093;51.424;11.764;2024-03-23T14:43:20;6.20;;;4.80;;
2173;SDS011;1093;51.424;11.764;2024-03-23T14:46:09;6.70;;;5.60;;
2173;SDS011;1093;51.424;11.764;2024-03-23T14:48:43;7.07;;;4.30;;
2173;SDS011;1093;51.424;11.764;2024-03-23T14:51:12;7.50;;;5.47;;
2173;SDS011;1093;51.424;11.764;2024-03-23T14:53:50;7.73;;;5.90;;
2173;SDS011;1093;51.424;11.764;2024-03-23T14:56:28;8.33;;;5.90;;
2173;SDS011;1093;51.424;11.764;2024-03-23T14:58:55;12.53;;;6.40;;
2173;SDS011;1093;51.424;11.764;2024-03-23T15:01:23;9.53;;;5.97;;
2173;SDS011;1093;51.424;11.764;2024-03-23T15:03:55;8.30;;;6.13;;
2173;SDS011;1093;51.424;11.764;2024-03-23T15:06:21;11.00;;;6.70;;
2173;SDS011;1093;51.424;11.764;2024-03-23T15:08:51;9.97;;;6.47;;
2173;SDS011;1093;51.424;11.764;2024-03-23T15:11:23;10.90;;;7.30;;
2173;SDS011;1093;51.424;11.764;2024-03-23T15:14:07;11.37;;;8.27;;
2173;SDS011;1093;51.424;11.764;2024-03-23T15:16:54;11.43;;;6.93;;
2173;SDS011;1093;51.424;11.764;2024-03-23T15:19:21;8.63;;;6.50;;
2173;SDS011;1093;51.424;11.764;2024-03-23T15:21:47;8.00;;;6.50;;
2173;SDS011;1093;51.424;11.764;2024-03-23T15:24:15;7.80;;;6.17;;
2173;SDS011;1093;51.424;11.764;2024-03-23T15:26:41;8.53;;;5.60;;
2173;SDS011;1093;51.424;11.764;2024-03-23T15:29:08;8.60;;;6.20;;
2173;SDS011;1093;51.424;11.764;2024-03-23T15:31:37;6.43;;;5.80;;
2173;SDS011;1093;51.424;11.764;2024-03-23T15:34:04;6.37;;;5.73;;
2173;SDS011;1093;51.424;11.764;2024-03-23T15:36:34;9.17;;;5.97;;
2173;SDS011;1093;51.424;11.764;2024-03-23T15:39:09;10.63;;;5.93;;
2173;SDS011;1093;51.424;11.764;2024-03-23T15:41:36;7.17;;;4.80;;
2173;SDS011;1093;51.424;11.764;2024-03-23T15:44:04;7.60;;;5.70;;
2173;SDS011;1093;51.424;11.764;2024-03-23T15:46:31;7.73;;;5.53;;
2173;SDS011;1093;51.424;11.764;2024-03-23T15:48:58;5.10;;;4.40;;
2173;SDS011;1093;51.424;11.764;2024-03-23T15:51:23;6.47;;;4.67;;
2173;SDS011;1093;51.424;11.764;2024-03-23T15:53:56;5.20;;;4.70;;
2173;SDS011;1093;51.424;11.764;2024-03-23T15:56:22;6.70;;;4.60;;
2173;SDS011;1093;51.424;11.764;2024-03-23T15:58:50;6.63;;;4.20;;
2173;SDS011;1093;51.424;11.764;2024-03-23T16:01:16;4.10;;;2.43;;
2173;SDS011;1093;51.424;11.764;2024-03-23T16:03:43;2.53;;;2.33;;